sensor_id;sensor_type;location;lat;lon;timestamp;pressure;altitude;pressure_sealevel;temperature;humidity
9129;BME280;4599;50.906;6.786;2023-05-23T00:00:10;18231.16;;;-142.83;68.79
9129;BME280;4599;50.906;6.786;2023-05-23T00:04:12;18167.72;;;-142.83;69.40
9129;BME280;4599;50.906;6.786;2023-05-23T00:08:13;18163.63;;;-142.83;68.43
9129;BME280;4599;50.906;6.786;2023-05-23T00:12:16;18165.69;;;-142.83;69.07
9129;BME280;4599;50.906;6.786;2023-05-23T00:16:18;18169.78;;;-142.83;69.47
9129;BME280;4599;50.906;6.786;2023-05-23T00:20:19;18155.44;;;-142.83;69.32
9129;BME280;4599;50.906;6.786;2023-05-23T00:24:20;18173.88;;;-142.83;69.42
9129;BME280;4599;50.906;6.786;2023-05-23T00:28:23;18145.22;;;-142.83;69.82
9129;BME280;4599;50.906;6.786;2023-05-23T00:32:25;18135.00;;;-142.83;69.58
9129;BME280;4599;50.906;6.786;2023-05-23T00:36:26;18124.75;;;-142.83;69.28
9129;BME280;4599;50.906;6.786;2023-05-23T00:40:28;18173.88;;;-142.83;69.52
9129;BME280;4599;50.906;6.786;2023-05-23T00:44:31;18128.84;;;-142.83;70.21
9129;BME280;4599;50.906;6.786;2023-05-23T00:48:32;18108.41;;;-142.83;70.33
9129;BME280;4599;50.906;6.786;2023-05-23T00:52:35;18139.09;;;-142.83;70.35
9129;BME280;4599;50.906;6.786;2023-05-23T00:56:37;18139.09;;;-142.83;70.12
9129;BME280;4599;50.906;6.786;2023-05-23T01:00:41;18145.22;;;-142.83;70.00
9129;BME280;4599;50.906;6.786;2023-05-23T01:04:43;18124.75;;;-142.83;70.49
9129;BME280;4599;50.906;6.786;2023-05-23T01:08:44;18124.75;;;-142.83;70.06
9129;BME280;4599;50.906;6.786;2023-05-23T01:12:54;18135.00;;;-142.83;70.16
9129;BME280;4599;50.906;6.786;2023-05-23T01:17:02;18202.50;;;-142.83;69.67
9129;BME280;4599;50.906;6.786;2023-05-23T01:21:06;18188.19;;;-142.83;69.84
9129;BME280;4599;50.906;6.786;2023-05-23T01:25:19;18167.72;;;-142.83;70.53
9129;BME280;4599;50.906;6.786;2023-05-23T01:29:27;18112.50;;;-142.83;70.74
9129;BME280;4599;50.906;6.786;2023-05-23T01:33:31;18153.41;;;-142.83;71.05
9129;BME280;4599;50.906;6.786;2023-05-23T01:37:32;18169.78;;;-142.83;70.89
9129;BME280;4599;50.906;6.786;2023-05-23T01:41:34;18180.00;;;-142.83;70.06
9129;BME280;4599;50.906;6.786;2023-05-23T01:45:37;18177.97;;;-142.83;70.26
9129;BME280;4599;50.906;6.786;2023-05-23T01:49:40;18190.22;;;-142.83;71.17
9129;BME280;4599;50.906;6.786;2023-05-23T01:53:42;18132.94;;;-142.83;70.40
9129;BME280;4599;50.906;6.786;2023-05-23T01:57:45;18147.28;;;-142.83;67.95
9129;BME280;4599;50.906;6.786;2023-05-23T02:01:49;18202.50;;;-142.83;66.83
9129;BME280;4599;50.906;6.786;2023-05-23T02:05:50;18194.31;;;-142.83;66.06
9129;BME280;4599;50.906;6.786;2023-05-23T02:09:52;18177.97;;;-142.83;65.16
9129;BME280;4599;50.906;6.786;2023-05-23T02:13:53;18218.88;;;-142.83;65.22
9129;BME280;4599;50.906;6.786;2023-05-23T02:17:56;18165.69;;;-142.83;65.32
9129;BME280;4599;50.906;6.786;2023-05-23T02:21:58;18180.00;;;-142.83;64.96
9129;BME280;4599;50.906;6.786;2023-05-23T02:25:59;18190.22;;;-142.83;64.93
9129;BME280;4599;50.906;6.786;2023-05-23T02:30:00;18184.09;;;-142.83;65.06
9129;BME280;4599;50.906;6.786;2023-05-23T02:34:03;18202.50;;;-142.83;64.56
9129;BME280;4599;50.906;6.786;2023-05-23T02:38:05;18198.41;;;-142.83;65.00
9129;BME280;4599;50.906;6.786;2023-05-23T02:42:06;18128.84;;;-142.83;65.88
9129;BME280;4599;50.906;6.786;2023-05-23T02:46:08;18151.34;;;-142.83;65.35
9129;BME280;4599;50.906;6.786;2023-05-23T02:50:11;18182.03;;;-142.83;65.30
9129;BME280;4599;50.906;6.786;2023-05-23T02:54:13;18128.84;;;-142.83;67.29
9129;BME280;4599;50.906;6.786;2023-05-23T02:58:14;18112.50;;;-142.83;67.45
9129;BME280;4599;50.906;6.786;2023-05-23T03:02:16;18175.91;;;-142.83;66.93
9129;BME280;4599;50.906;6.786;2023-05-23T03:06:19;18155.44;;;-142.83;67.56
9129;BME280;4599;50.906;6.786;2023-05-23T03:10:20;18128.84;;;-142.83;68.45
9129;BME280;4599;50.906;6.786;2023-05-23T03:14:21;18155.44;;;-142.83;67.06
9129;BME280;4599;50.906;6.786;2023-05-23T03:18:23;18094.06;;;-142.83;68.66
9129;BME280;4599;50.906;6.786;2023-05-23T03:22:26;18118.63;;;-142.83;67.34
9129;BME280;4599;50.906;6.786;2023-05-23T03:26:27;18163.63;;;-142.83;67.88
9129;BME280;4599;50.906;6.786;2023-05-23T03:30:29;18100.22;;;-142.83;68.93
9129;BME280;4599;50.906;6.786;2023-05-23T03:34:30;18112.50;;;-142.83;69.49
9129;BME280;4599;50.906;6.786;2023-05-23T03:38:33;18100.22;;;-142.83;71.22
9129;BME280;4599;50.906;6.786;2023-05-23T03:42:35;18126.81;;;-142.83;71.62
9129;BME280;4599;50.906;6.786;2023-05-23T03:46:37;18108.41;;;-142.83;71.34
9129;BME280;4599;50.906;6.786;2023-05-23T03:50:40;18094.06;;;-142.83;72.81
9129;BME280;4599;50.906;6.786;2023-05-23T03:54:43;18077.72;;;-142.83;72.15
9129;BME280;4599;50.906;6.786;2023-05-23T03:58:44;18124.75;;;-142.83;72.42
9129;BME280;4599;50.906;6.786;2023-05-23T04:02:46;18087.94;;;-142.83;72.21
9129;BME280;4599;50.906;6.786;2023-05-23T04:06:47;18083.84;;;-142.83;71.48
9129;BME280;4599;50.906;6.786;2023-05-23T04:10:50;18077.72;;;-142.83;71.66
9129;BME280;4599;50.906;6.786;2023-05-23T04:14:52;18180.00;;;-142.83;70.89
9129;BME280;4599;50.906;6.786;2023-05-23T04:18:53;18077.72;;;-142.83;70.53
9129;BME280;4599;50.906;6.786;2023-05-23T04:22:55;18071.56;;;-142.83;71.48
9129;BME280;4599;50.906;6.786;2023-05-23T04:26:57;18118.63;;;-142.83;71.35
9129;BME280;4599;50.906;6.786;2023-05-23T04:30:59;18124.75;;;-142.83;70.14
9129;BME280;4599;50.906;6.786;2023-05-23T04:35:00;18135.00;;;-142.83;69.62
9129;BME280;4599;50.906;6.786;2023-05-23T04:39:02;18124.75;;;-142.83;69.97
9129;BME280;4599;50.906;6.786;2023-05-23T04:43:05;18096.13;;;-142.83;70.44
9129;BME280;4599;50.906;6.786;2023-05-23T04:47:07;18067.47;;;-142.83;70.23
9129;BME280;4599;50.906;6.786;2023-05-23T04:51:09;18092.03;;;-142.83;70.46
9129;BME280;4599;50.906;6.786;2023-05-23T04:55:10;18122.72;;;-142.83;70.76
9129;BME280;4599;50.906;6.786;2023-05-23T04:59:13;18145.22;;;-142.83;69.92
9129;BME280;4599;50.906;6.786;2023-05-23T05:03:14;18139.09;;;-142.83;69.21
9129;BME280;4599;50.906;6.786;2023-05-23T05:07:17;18139.09;;;-142.83;69.33
9129;BME280;4599;50.906;6.786;2023-05-23T05:11:19;18100.22;;;-142.83;69.71
9129;BME280;4599;50.906;6.786;2023-05-23T05:15:22;18079.75;;;-142.83;69.93
9129;BME280;4599;50.906;6.786;2023-05-23T05:19:23;18104.31;;;-142.83;69.23
9129;BME280;4599;50.906;6.786;2023-05-23T05:23:25;18106.34;;;-142.83;70.07
9129;BME280;4599;50.906;6.786;2023-05-23T05:27:27;18141.13;;;-142.83;69.35
9129;BME280;4599;50.906;6.786;2023-05-23T05:31:30;18126.81;;;-142.83;69.02
9129;BME280;4599;50.906;6.786;2023-05-23T05:35:32;18153.41;;;-142.83;68.77
9129;BME280;4599;50.906;6.786;2023-05-23T05:39:33;18173.88;;;-142.83;68.52
9129;BME280;4599;50.906;6.786;2023-05-23T05:43:35;18132.94;;;-142.83;68.90
9129;BME280;4599;50.906;6.786;2023-05-23T05:47:38;18139.09;;;-142.83;69.07
9129;BME280;4599;50.906;6.786;2023-05-23T05:51:39;18114.53;;;-142.83;70.24
9129;BME280;4599;50.906;6.786;2023-05-23T05:55:41;18089.97;;;-142.83;70.82
9129;BME280;4599;50.906;6.786;2023-05-23T05:59:42;18104.31;;;-142.83;71.09
9129;BME280;4599;50.906;6.786;2023-05-23T06:03:45;18110.44;;;-142.83;70.64
9129;BME280;4599;50.906;6.786;2023-05-23T06:07:47;18147.28;;;-142.83;70.09
9129;BME280;4599;50.906;6.786;2023-05-23T06:11:49;18137.03;;;-142.83;70.36
9129;BME280;4599;50.906;6.786;2023-05-23T06:15:51;18116.56;;;-142.83;69.57
9129;BME280;4599;50.906;6.786;2023-05-23T06:19:54;18130.91;;;-142.83;70.02
9129;BME280;4599;50.906;6.786;2023-05-23T06:23:55;18112.50;;;-142.83;69.84
9129;BME280;4599;50.906;6.786;2023-05-23T06:27:57;18157.50;;;-142.83;69.94
9129;BME280;4599;50.906;6.786;2023-05-23T06:31:58;18149.31;;;-142.83;70.35
9129;BME280;4599;50.906;6.786;2023-05-23T06:36:01;18108.41;;;-142.83;70.90
9129;BME280;4599;50.906;6.786;2023-05-23T06:40:03;18137.03;;;-142.83;70.22
9129;BME280;4599;50.906;6.786;2023-05-23T06:44:05;18120.66;;;-142.83;70.22
9129;BME280;4599;50.906;6.786;2023-05-23T06:48:07;18173.88;;;-142.83;70.19
9129;BME280;4599;50.906;6.786;2023-05-23T06:52:09;18124.75;;;-142.83;70.14
9129;BME280;4599;50.906;6.786;2023-05-23T06:56:11;18145.22;;;-142.83;69.90
9129;BME280;4599;50.906;6.786;2023-05-23T07:00:13;18153.41;;;-142.83;69.21
9129;BME280;4599;50.906;6.786;2023-05-23T07:04:15;18214.78;;;-142.83;68.19
9129;BME280;4599;50.906;6.786;2023-05-23T07:08:17;18128.84;;;-142.83;68.15
9129;BME280;4599;50.906;6.786;2023-05-23T07:12:19;18204.56;;;-142.83;68.06
9129;BME280;4599;50.906;6.786;2023-05-23T07:16:20;18175.91;;;-142.83;67.93
9129;BME280;4599;50.906;6.786;2023-05-23T07:20:22;18177.97;;;-142.83;68.10
9129;BME280;4599;50.906;6.786;2023-05-23T07:24:25;18186.13;;;-142.83;68.40
9129;BME280;4599;50.906;6.786;2023-05-23T07:28:26;18177.97;;;-142.83;68.44
9129;BME280;4599;50.906;6.786;2023-05-23T07:32:28;18239.34;;;-142.83;67.84
9129;BME280;4599;50.906;6.786;2023-05-23T07:36:32;18263.88;;;-142.83;67.09
9129;BME280;4599;50.906;6.786;2023-05-23T07:40:36;18265.94;;;-142.83;66.42
9129;BME280;4599;50.906;6.786;2023-05-23T07:44:37;18272.06;;;-142.83;65.59
9129;BME280;4599;50.906;6.786;2023-05-23T07:48:39;18306.84;;;-142.83;65.11
9129;BME280;4599;50.906;6.786;2023-05-23T07:52:40;18306.84;;;-142.83;64.77
9129;BME280;4599;50.906;6.786;2023-05-23T07:56:43;18323.22;;;-142.83;65.67
9129;BME280;4599;50.906;6.786;2023-05-23T08:00:44;18333.44;;;-142.83;64.29
9129;BME280;4599;50.906;6.786;2023-05-23T08:04:47;18329.34;;;-142.83;65.24
9129;BME280;4599;50.906;6.786;2023-05-23T08:08:49;18249.56;;;-142.83;65.68
9129;BME280;4599;50.906;6.786;2023-05-23T08:12:52;18251.59;;;-142.83;65.58
9129;BME280;4599;50.906;6.786;2023-05-23T08:16:54;18278.19;;;-142.83;66.39
9129;BME280;4599;50.906;6.786;2023-05-23T08:20:55;18276.16;;;-142.83;66.77
9129;BME280;4599;50.906;6.786;2023-05-23T08:24:57;18255.69;;;-142.83;66.85
9129;BME280;4599;50.906;6.786;2023-05-23T08:28:59;18220.91;;;-142.83;66.41
9129;BME280;4599;50.906;6.786;2023-05-23T08:33:01;18202.50;;;-142.83;67.36
9129;BME280;4599;50.906;6.786;2023-05-23T08:37:03;18157.50;;;-142.83;69.14
9129;BME280;4599;50.906;6.786;2023-05-23T08:41:18;18218.88;;;-142.83;68.83
9129;BME280;4599;50.906;6.786;2023-05-23T08:45:21;18188.19;;;-142.83;68.63
9129;BME280;4599;50.906;6.786;2023-05-23T08:49:23;18202.50;;;-142.83;69.26
9129;BME280;4599;50.906;6.786;2023-05-23T08:53:26;18165.69;;;-142.83;68.79
9129;BME280;4599;50.906;6.786;2023-05-23T08:57:27;18153.41;;;-142.83;69.38
9129;BME280;4599;50.906;6.786;2023-05-23T09:01:31;18137.03;;;-142.83;69.97
9129;BME280;4599;50.906;6.786;2023-05-23T09:05:32;18196.38;;;-142.83;69.49
9129;BME280;4599;50.906;6.786;2023-05-23T09:09:34;18192.28;;;-142.83;68.97
9129;BME280;4599;50.906;6.786;2023-05-23T09:13:36;18128.84;;;-142.83;70.36
9129;BME280;4599;50.906;6.786;2023-05-23T09:17:39;18073.63;;;-142.83;72.87
9129;BME280;4599;50.906;6.786;2023-05-23T09:21:42;18114.53;;;-142.83;74.75
9129;BME280;4599;50.906;6.786;2023-05-23T09:25:45;18137.03;;;-142.83;75.08
9129;BME280;4599;50.906;6.786;2023-05-23T09:29:47;18132.94;;;-142.83;74.46
9129;BME280;4599;50.906;6.786;2023-05-23T09:33:50;18116.56;;;-142.83;74.31
9129;BME280;4599;50.906;6.786;2023-05-23T09:37:53;18108.41;;;-142.83;74.42
9129;BME280;4599;50.906;6.786;2023-05-23T09:41:54;18112.50;;;-142.83;73.26
9129;BME280;4599;50.906;6.786;2023-05-23T09:45:59;18124.75;;;-142.83;74.00
9129;BME280;4599;50.906;6.786;2023-05-23T09:50:03;18042.94;;;-142.83;74.70
9129;BME280;4599;50.906;6.786;2023-05-23T09:54:05;18087.94;;;-142.83;74.36
9129;BME280;4599;50.906;6.786;2023-05-23T09:58:06;18114.53;;;-142.83;73.81
9129;BME280;4599;50.906;6.786;2023-05-23T10:02:11;18169.78;;;-142.83;71.95
9129;BME280;4599;50.906;6.786;2023-05-23T10:06:17;18558.50;;;-142.83;70.51
9129;BME280;4599;50.906;6.786;2023-05-23T10:10:21;18437.78;;;-142.83;66.59
9129;BME280;4599;50.906;6.786;2023-05-23T10:14:23;18366.19;;;-142.83;65.33
9129;BME280;4599;50.906;6.786;2023-05-23T10:18:28;18351.84;;;-142.83;66.31
9129;BME280;4599;50.906;6.786;2023-05-23T10:22:32;18871.56;;;-142.83;63.26
9129;BME280;4599;50.906;6.786;2023-05-23T10:26:34;19593.94;;;-142.83;57.30
9129;BME280;4599;50.906;6.786;2023-05-23T10:30:36;19334.03;;;-142.83;50.65
9129;BME280;4599;50.906;6.786;2023-05-23T10:34:42;19456.81;;;-142.83;47.77
9129;BME280;4599;50.906;6.786;2023-05-23T10:38:50;18904.31;;;-142.83;51.47
9129;BME280;4599;50.906;6.786;2023-05-23T10:42:58;18650.56;;;-142.83;53.68
9129;BME280;4599;50.906;6.786;2023-05-23T10:47:02;18685.34;;;-142.83;55.65
9129;BME280;4599;50.906;6.786;2023-05-23T10:51:05;18623.97;;;-142.83;54.05
9129;BME280;4599;50.906;6.786;2023-05-23T10:55:13;18548.28;;;-142.83;54.54
9129;BME280;4599;50.906;6.786;2023-05-23T10:59:19;18515.53;;;-142.83;53.70
9129;BME280;4599;50.906;6.786;2023-05-23T11:03:48;18505.31;;;-142.83;53.97
9129;BME280;4599;50.906;6.786;2023-05-23T11:08:09;18476.66;;;-142.83;55.40
9129;BME280;4599;50.906;6.786;2023-05-23T11:12:12;18421.41;;;-142.83;55.41
9129;BME280;4599;50.906;6.786;2023-05-23T11:16:23;18403.00;;;-142.83;56.68
9129;BME280;4599;50.906;6.786;2023-05-23T11:20:25;18464.38;;;-142.83;55.16
9129;BME280;4599;50.906;6.786;2023-05-23T11:24:47;18472.56;;;-142.83;54.23
9129;BME280;4599;50.906;6.786;2023-05-23T11:28:56;18648.53;;;-142.83;53.09
9129;BME280;4599;50.906;6.786;2023-05-23T11:32:58;18750.84;;;-142.83;50.76
9129;BME280;4599;50.906;6.786;2023-05-23T11:37:00;18930.91;;;-142.83;49.79
9129;BME280;4599;50.906;6.786;2023-05-23T11:41:01;19729.03;;;-142.83;46.75
9129;BME280;4599;50.906;6.786;2023-05-23T11:45:08;19364.72;;;-142.83;44.31
9129;BME280;4599;50.906;6.786;2023-05-23T11:49:10;19847.72;;;-142.83;44.70
9129;BME280;4599;50.906;6.786;2023-05-23T11:53:12;19049.59;;;-142.83;44.91
9129;BME280;4599;50.906;6.786;2023-05-23T11:57:13;18832.69;;;-142.83;47.01
9129;BME280;4599;50.906;6.786;2023-05-23T12:01:16;18769.25;;;-142.83;48.48
9129;BME280;4599;50.906;6.786;2023-05-23T12:05:18;18951.38;;;-142.83;47.05
9129;BME280;4599;50.906;6.786;2023-05-23T12:09:19;18947.28;;;-142.83;46.72
9129;BME280;4599;50.906;6.786;2023-05-23T12:13:23;18871.56;;;-142.83;46.61
9129;BME280;4599;50.906;6.786;2023-05-23T12:17:26;18734.47;;;-142.83;47.03
9129;BME280;4599;50.906;6.786;2023-05-23T12:21:40;18593.28;;;-142.83;47.49
9129;BME280;4599;50.906;6.786;2023-05-23T12:25:42;18558.50;;;-142.83;48.29
9129;BME280;4599;50.906;6.786;2023-05-23T12:29:49;18517.59;;;-142.83;51.48
9129;BME280;4599;50.906;6.786;2023-05-23T12:33:52;18517.59;;;-142.83;51.03
9129;BME280;4599;50.906;6.786;2023-05-23T12:37:55;18693.53;;;-142.83;50.70
9129;BME280;4599;50.906;6.786;2023-05-23T12:42:06;18683.31;;;-142.83;48.17
9129;BME280;4599;50.906;6.786;2023-05-23T12:46:08;18769.25;;;-142.83;46.83
9129;BME280;4599;50.906;6.786;2023-05-23T12:50:11;18771.28;;;-142.83;47.68
9129;BME280;4599;50.906;6.786;2023-05-23T12:54:12;18677.19;;;-142.83;46.98
9129;BME280;4599;50.906;6.786;2023-05-23T12:58:15;18822.44;;;-142.83;45.44
9129;BME280;4599;50.906;6.786;2023-05-23T13:02:16;18951.38;;;-142.83;43.93
9129;BME280;4599;50.906;6.786;2023-05-23T13:06:19;19270.59;;;-142.83;43.93
9129;BME280;4599;50.906;6.786;2023-05-23T13:10:21;19391.34;;;-142.83;43.17
9129;BME280;4599;50.906;6.786;2023-05-23T13:14:22;19346.31;;;-142.83;40.64
9129;BME280;4599;50.906;6.786;2023-05-23T13:18:24;19215.34;;;-142.83;40.47
9129;BME280;4599;50.906;6.786;2023-05-23T13:22:27;19317.66;;;-142.83;42.44
9129;BME280;4599;50.906;6.786;2023-05-23T13:26:29;19018.88;;;-142.83;41.50
9129;BME280;4599;50.906;6.786;2023-05-23T13:30:31;18955.47;;;-142.83;41.93
9129;BME280;4599;50.906;6.786;2023-05-23T13:34:32;19284.91;;;-142.83;40.98
9129;BME280;4599;50.906;6.786;2023-05-23T13:38:36;19172.38;;;-142.83;39.06
9129;BME280;4599;50.906;6.786;2023-05-23T13:42:38;19254.22;;;-142.83;38.81
9129;BME280;4599;50.906;6.786;2023-05-23T13:46:39;19233.75;;;-142.83;38.49
9129;BME280;4599;50.906;6.786;2023-05-23T13:50:41;19018.88;;;-142.83;39.00
9129;BME280;4599;50.906;6.786;2023-05-23T13:54:45;19049.59;;;-142.83;40.17
9129;BME280;4599;50.906;6.786;2023-05-23T13:58:46;19141.66;;;-142.83;38.18
9129;BME280;4599;50.906;6.786;2023-05-23T14:02:48;19104.84;;;-142.83;37.74
9129;BME280;4599;50.906;6.786;2023-05-23T14:06:50;19331.97;;;-142.83;36.75
9129;BME280;4599;50.906;6.786;2023-05-23T14:10:52;19458.88;;;-142.83;36.89
9129;BME280;4599;50.906;6.786;2023-05-23T14:14:54;19338.13;;;-142.83;36.22
9129;BME280;4599;50.906;6.786;2023-05-23T14:18:56;19307.44;;;-142.83;37.75
9129;BME280;4599;50.906;6.786;2023-05-23T14:22:57;19110.97;;;-142.83;37.95
9129;BME280;4599;50.906;6.786;2023-05-23T14:27:00;19227.63;;;-142.83;37.02
9129;BME280;4599;50.906;6.786;2023-05-23T14:31:02;19065.97;;;-142.83;39.12
9129;BME280;4599;50.906;6.786;2023-05-23T14:35:04;18930.91;;;-142.83;38.56
9129;BME280;4599;50.906;6.786;2023-05-23T14:39:06;18892.03;;;-142.83;38.87
9129;BME280;4599;50.906;6.786;2023-05-23T14:43:12;19022.97;;;-142.83;39.66
9129;BME280;4599;50.906;6.786;2023-05-23T14:47:13;18973.88;;;-142.83;39.08
9129;BME280;4599;50.906;6.786;2023-05-23T14:51:15;18967.72;;;-142.83;37.86
9129;BME280;4599;50.906;6.786;2023-05-23T14:55:35;18861.31;;;-142.83;39.23
9129;BME280;4599;50.906;6.786;2023-05-23T14:59:38;18869.50;;;-142.83;40.54
9129;BME280;4599;50.906;6.786;2023-05-23T15:03:39;18746.75;;;-142.83;39.81
9129;BME280;4599;50.906;6.786;2023-05-23T15:07:41;18730.38;;;-142.83;41.10
9129;BME280;4599;50.906;6.786;2023-05-23T15:11:43;18732.41;;;-142.83;41.49
9129;BME280;4599;50.906;6.786;2023-05-23T15:15:46;18734.47;;;-142.83;40.03
9129;BME280;4599;50.906;6.786;2023-05-23T15:19:47;18754.94;;;-142.83;40.16
9129;BME280;4599;50.906;6.786;2023-05-23T15:23:50;18767.19;;;-142.83;40.29
9129;BME280;4599;50.906;6.786;2023-05-23T15:27:51;18691.50;;;-142.83;40.21
9129;BME280;4599;50.906;6.786;2023-05-23T15:31:54;18689.44;;;-142.83;40.12
9129;BME280;4599;50.906;6.786;2023-05-23T15:35:56;18685.34;;;-142.83;40.88
9129;BME280;4599;50.906;6.786;2023-05-23T15:39:57;18677.19;;;-142.83;41.02
9129;BME280;4599;50.906;6.786;2023-05-23T15:43:59;18623.97;;;-142.83;40.60
9129;BME280;4599;50.906;6.786;2023-05-23T15:48:02;18599.41;;;-142.83;40.27
9129;BME280;4599;50.906;6.786;2023-05-23T15:52:04;18611.69;;;-142.83;40.16
9129;BME280;4599;50.906;6.786;2023-05-23T15:56:05;18595.34;;;-142.83;40.19
9129;BME280;4599;50.906;6.786;2023-05-23T16:00:08;18642.38;;;-142.83;40.57
9129;BME280;4599;50.906;6.786;2023-05-23T16:04:11;18656.72;;;-142.83;40.03
9129;BME280;4599;50.906;6.786;2023-05-23T16:08:13;18642.38;;;-142.83;38.90
9129;BME280;4599;50.906;6.786;2023-05-23T16:12:14;18632.16;;;-142.83;39.67
9129;BME280;4599;50.906;6.786;2023-05-23T16:16:16;18599.41;;;-142.83;40.25
9129;BME280;4599;50.906;6.786;2023-05-23T16:20:19;18578.97;;;-142.83;40.56
9129;BME280;4599;50.906;6.786;2023-05-23T16:24:21;18570.78;;;-142.83;40.61
9129;BME280;4599;50.906;6.786;2023-05-23T16:28:22;18517.59;;;-142.83;41.48
9129;BME280;4599;50.906;6.786;2023-05-23T16:32:24;18521.66;;;-142.83;40.62
9129;BME280;4599;50.906;6.786;2023-05-23T16:36:26;18548.28;;;-142.83;40.83
9129;BME280;4599;50.906;6.786;2023-05-23T16:40:28;18517.59;;;-142.83;41.36
9129;BME280;4599;50.906;6.786;2023-05-23T16:44:29;18529.84;;;-142.83;41.20
9129;BME280;4599;50.906;6.786;2023-05-23T16:48:31;18486.88;;;-142.83;41.77
9129;BME280;4599;50.906;6.786;2023-05-23T16:52:34;18456.19;;;-142.83;42.41
9129;BME280;4599;50.906;6.786;2023-05-23T16:56:35;18419.38;;;-142.83;40.99
9129;BME280;4599;50.906;6.786;2023-05-23T17:00:37;18405.06;;;-142.83;41.81
9129;BME280;4599;50.906;6.786;2023-05-23T17:04:38;18415.28;;;-142.83;41.66
9129;BME280;4599;50.906;6.786;2023-05-23T17:08:41;18390.72;;;-142.83;41.32
9129;BME280;4599;50.906;6.786;2023-05-23T17:12:43;18396.88;;;-142.83;42.44
9129;BME280;4599;50.906;6.786;2023-05-23T17:16:44;18423.47;;;-142.83;42.64
9129;BME280;4599;50.906;6.786;2023-05-23T17:20:46;18413.22;;;-142.83;42.72
9129;BME280;4599;50.906;6.786;2023-05-23T17:24:48;18419.38;;;-142.83;42.18
9129;BME280;4599;50.906;6.786;2023-05-23T17:28:50;18358.00;;;-142.83;42.69
9129;BME280;4599;50.906;6.786;2023-05-23T17:32:51;18362.09;;;-142.83;42.75
9129;BME280;4599;50.906;6.786;2023-05-23T17:36:53;18355.94;;;-142.83;42.41
9129;BME280;4599;50.906;6.786;2023-05-23T17:40:56;18364.13;;;-142.83;42.99
9129;BME280;4599;50.906;6.786;2023-05-23T17:44:57;18353.91;;;-142.83;43.19
9129;BME280;4599;50.906;6.786;2023-05-23T17:48:59;18337.53;;;-142.83;43.41
9129;BME280;4599;50.906;6.786;2023-05-23T17:53:00;18300.72;;;-142.83;43.60
9129;BME280;4599;50.906;6.786;2023-05-23T17:57:06;18315.03;;;-142.83;42.08
9129;BME280;4599;50.906;6.786;2023-05-23T18:01:07;18280.25;;;-142.83;42.90
9129;BME280;4599;50.906;6.786;2023-05-23T18:05:09;18292.53;;;-142.83;43.39
9129;BME280;4599;50.906;6.786;2023-05-23T18:09:10;18278.19;;;-142.83;43.38
9129;BME280;4599;50.906;6.786;2023-05-23T18:13:14;18290.47;;;-142.83;43.00
9129;BME280;4599;50.906;6.786;2023-05-23T18:17:15;18265.94;;;-142.83;43.00
9129;BME280;4599;50.906;6.786;2023-05-23T18:21:17;18251.59;;;-142.83;43.00
9129;BME280;4599;50.906;6.786;2023-05-23T18:25:18;18253.66;;;-142.83;43.65
9129;BME280;4599;50.906;6.786;2023-05-23T18:29:21;18194.31;;;-142.83;44.46
9129;BME280;4599;50.906;6.786;2023-05-23T18:33:23;18202.50;;;-142.83;44.21
9129;BME280;4599;50.906;6.786;2023-05-23T18:37:24;18196.38;;;-142.83;45.47
9129;BME280;4599;50.906;6.786;2023-05-23T18:41:26;18190.22;;;-142.83;46.46
9129;BME280;4599;50.906;6.786;2023-05-23T18:45:29;18161.59;;;-142.83;46.44
9129;BME280;4599;50.906;6.786;2023-05-23T18:49:30;18182.03;;;-142.83;45.68
9129;BME280;4599;50.906;6.786;2023-05-23T18:53:32;18157.50;;;-142.83;46.70
9129;BME280;4599;50.906;6.786;2023-05-23T18:57:33;18124.75;;;-142.83;45.98
9129;BME280;4599;50.906;6.786;2023-05-23T19:01:36;18120.66;;;-142.83;47.12
9129;BME280;4599;50.906;6.786;2023-05-23T19:05:38;18108.41;;;-142.83;47.19
9129;BME280;4599;50.906;6.786;2023-05-23T19:09:39;18135.00;;;-142.83;46.50
9129;BME280;4599;50.906;6.786;2023-05-23T19:13:41;18120.66;;;-142.83;47.90
9129;BME280;4599;50.906;6.786;2023-05-23T19:17:44;18104.31;;;-142.83;47.09
9129;BME280;4599;50.906;6.786;2023-05-23T19:21:46;18104.31;;;-142.83;47.05
9129;BME280;4599;50.906;6.786;2023-05-23T19:25:47;18077.72;;;-142.83;48.29
9129;BME280;4599;50.906;6.786;2023-05-23T19:29:49;18051.13;;;-142.83;47.05
9129;BME280;4599;50.906;6.786;2023-05-23T19:33:52;18079.75;;;-142.83;47.86
9129;BME280;4599;50.906;6.786;2023-05-23T19:37:53;18059.28;;;-142.83;48.92
9129;BME280;4599;50.906;6.786;2023-05-23T19:41:54;18020.44;;;-142.83;49.52
9129;BME280;4599;50.906;6.786;2023-05-23T19:45:56;18040.88;;;-142.83;48.66
9129;BME280;4599;50.906;6.786;2023-05-23T19:49:59;18034.75;;;-142.83;49.46
9129;BME280;4599;50.906;6.786;2023-05-23T19:54:00;18018.38;;;-142.83;48.94
9129;BME280;4599;50.906;6.786;2023-05-23T19:58:02;17985.66;;;-142.83;49.87
9129;BME280;4599;50.906;6.786;2023-05-23T20:02:04;17959.06;;;-142.83;49.25
9129;BME280;4599;50.906;6.786;2023-05-23T20:06:07;17997.94;;;-142.83;49.12
9129;BME280;4599;50.906;6.786;2023-05-23T20:10:08;17987.69;;;-142.83;50.08
9129;BME280;4599;50.906;6.786;2023-05-23T20:14:10;17997.94;;;-142.83;48.83
9129;BME280;4599;50.906;6.786;2023-05-23T20:18:12;17981.56;;;-142.83;49.52
9129;BME280;4599;50.906;6.786;2023-05-23T20:22:15;17985.66;;;-142.83;49.11
9129;BME280;4599;50.906;6.786;2023-05-23T20:26:16;17989.75;;;-142.83;48.95
9129;BME280;4599;50.906;6.786;2023-05-23T20:30:18;17918.13;;;-142.83;49.48
9129;BME280;4599;50.906;6.786;2023-05-23T20:34:19;17948.81;;;-142.83;49.51
9129;BME280;4599;50.906;6.786;2023-05-23T20:38:22;17940.66;;;-142.83;49.42
9129;BME280;4599;50.906;6.786;2023-05-23T20:42:24;17959.06;;;-142.83;49.58
9129;BME280;4599;50.906;6.786;2023-05-23T20:46:25;17967.25;;;-142.83;49.12
9129;BME280;4599;50.906;6.786;2023-05-23T20:50:27;17936.56;;;-142.83;49.77
9129;BME280;4599;50.906;6.786;2023-05-23T20:54:30;17912.00;;;-142.83;49.29
9129;BME280;4599;50.906;6.786;2023-05-23T20:58:31;17924.28;;;-142.83;49.63
9129;BME280;4599;50.906;6.786;2023-05-23T21:02:33;17928.38;;;-142.83;49.13
9129;BME280;4599;50.906;6.786;2023-05-23T21:06:35;17869.03;;;-142.83;50.00
9129;BME280;4599;50.906;6.786;2023-05-23T21:10:37;17909.97;;;-142.83;49.17
9129;BME280;4599;50.906;6.786;2023-05-23T21:14:39;17920.19;;;-142.83;49.73
9129;BME280;4599;50.906;6.786;2023-05-23T21:18:41;17914.06;;;-142.83;49.73
9129;BME280;4599;50.906;6.786;2023-05-23T21:22:42;17877.22;;;-142.83;49.44